Time;durP1;ratioP1;P1;durP2;ratioP2;P2;SDS_P1;SDS_P2;PMS_P1;PMS_P2;Temp;Humidity;BMP_temperature;BMP_pressure;BME280_temperature;BME280_humidity;BME280_pressure;Samples;Min_cycle;Max_cycle;Signal;HPM_P1;HPM_P2
2021/06/04 00:01:12;;;;;;;9.82;8.60;;;21.60;80.90;;;;;;5013558;28;20053;-84
2021/06/04 00:03:38;;;;;;;12.15;9.15;;;21.60;81.00;;;;;;5014325;28;20124;-85
2021/06/04 00:06:06;;;;;;;12.13;9.48;;;21.60;81.30;;;;;;5014444;28;20470;-85
2021/06/04 00:08:33;;;;;;;10.70;9.57;;;21.50;81.30;;;;;;5013842;28;20057;-85
2021/06/04 00:11:04;;;;;;;10.82;9.57;;;21.50;81.50;;;;;;5013993;28;20068;-84
2021/06/04 00:13:47;;;;;;;11.18;9.98;;;21.50;81.50;;;;;;5014298;28;20056;-84
2021/06/04 00:16:27;;;;;;;10.57;9.48;;;21.50;81.40;;;;;;5013791;28;20145;-84
2021/06/04 00:18:53;;;;;;;11.07;9.98;;;21.40;81.10;;;;;;5013821;28;20089;-85
2021/06/04 00:21:26;;;;;;;12.48;10.10;;;21.40;81.60;;;;;;5014222;28;20049;-84
2021/06/04 00:23:54;;;;;;;12.23;11.02;;;21.40;81.50;;;;;;5011246;28;20124;-84
2021/06/04 00:26:21;;;;;;;12.00;10.75;;;21.40;81.90;;;;;;4994460;28;20101;-84
2021/06/04 00:28:47;;;;;;;12.57;11.27;;;21.30;81.80;;;;;;4994417;28;20446;-84
2021/06/04 00:31:13;;;;;;;14.23;11.70;;;21.30;82.20;;;;;;4993569;28;20129;-84
2021/06/04 00:33:39;;;;;;;14.43;11.60;;;21.30;82.20;;;;;;4994176;28;20133;-84
2021/06/04 00:36:07;;;;;;;13.43;11.63;;;21.30;82.30;;;;;;4992993;28;20074;-84
2021/06/04 00:38:34;;;;;;;14.32;12.82;;;21.20;82.50;;;;;;5011915;28;20140;-84
2021/06/04 00:41:02;;;;;;;13.85;12.43;;;21.20;82.50;;;;;;5013025;28;20104;-84
2021/06/04 00:43:28;;;;;;;13.88;12.30;;;21.20;82.60;;;;;;5013096;28;20141;-84
2021/06/04 00:45:56;;;;;;;15.88;13.45;;;21.20;82.40;;;;;;5013181;28;20530;-84
2021/06/04 00:48:23;;;;;;;15.80;14.13;;;21.10;82.30;;;;;;5013244;28;20049;-84
2021/06/04 00:51:13;;;;;;;16.38;13.52;;;21.10;82.30;;;;;;5012863;28;20045;-84
2021/06/04 00:53:40;;;;;;;15.73;13.82;;;21.10;82.40;;;;;;4999249;28;20054;-82
2021/06/04 00:56:06;;;;;;;15.75;14.15;;;21.00;82.50;;;;;;5012764;28;20046;-83
2021/06/04 00:58:42;;;;;;;17.35;15.55;;;21.00;82.50;;;;;;5012771;28;20053;-83
2021/06/04 01:01:10;;;;;;;17.90;16.00;;;21.00;82.40;;;;;;5013109;28;20146;-83
2021/06/04 01:03:43;;;;;;;17.35;15.18;;;20.90;82.60;;;;;;5013248;28;20136;-83
2021/06/04 01:06:26;;;;;;;19.95;16.67;;;20.90;82.60;;;;;;5012301;28;20050;-83
2021/06/04 01:09:17;;;;;;;17.20;15.40;;;20.90;82.00;;;;;;5013181;28;20050;-83
2021/06/04 01:12:26;;;;;;;19.98;16.85;;;20.80;81.90;;;;;;5012837;28;20050;-83
2021/06/04 01:15:20;;;;;;;18.77;16.77;;;20.80;82.00;;;;;;4944006;28;20106;-83
2021/06/04 01:18:30;;;;;;;21.00;18.00;;;20.70;82.10;;;;;;4974184;28;20046;-84
2021/06/04 01:21:00;;;;;;;19.70;17.60;;;20.70;82.00;;;;;;4973797;28;20050;-84
2021/06/04 01:24:02;;;;;;;22.27;18.52;;;20.60;82.60;;;;;;4976396;28;20054;-84
2021/06/04 01:26:49;;;;;;;21.00;18.40;;;20.70;82.20;;;;;;4992709;28;20061;-84
2021/06/04 01:29:29;;;;;;;23.67;20.13;;;20.60;82.60;;;;;;5000128;28;20065;-85
2021/06/04 01:32:04;;;;;;;21.73;19.15;;;20.60;82.70;;;;;;5012956;28;20053;-84
2021/06/04 01:34:35;;;;;;;21.83;19.05;;;20.60;83.00;;;;;;5012341;28;20053;-84
2021/06/04 01:37:09;;;;;;;23.63;21.03;;;20.50;82.70;;;;;;5012511;28;20453;-84
2021/06/04 01:39:41;;;;;;;23.55;20.98;;;20.50;82.80;;;;;;5012094;28;20876;-83
2021/06/04 01:42:10;;;;;;;23.23;20.35;;;20.50;83.30;;;;;;5012821;28;20399;-84
2021/06/04 01:44:37;;;;;;;25.35;21.27;;;20.40;83.40;;;;;;5012654;28;20054;-84
2021/06/04 01:47:12;;;;;;;25.95;21.90;;;20.40;83.50;;;;;;5011888;28;20053;-85
2021/06/04 01:49:41;;;;;;;25.38;22.35;;;20.40;83.80;;;;;;5011904;28;20413;-84
2021/06/04 01:52:21;;;;;;;26.20;22.02;;;20.40;83.80;;;;;;5012586;28;20056;-84
2021/06/04 01:54:58;;;;;;;27.23;23.00;;;20.30;83.50;;;;;;5011665;28;20046;-85
2021/06/04 01:57:32;;;;;;;26.65;23.73;;;20.40;83.50;;;;;;5013316;28;20054;-85
2021/06/04 01:59:59;;;;;;;27.15;23.52;;;20.30;83.80;;;;;;5016617;28;20053;-85
2021/06/04 02:02:30;;;;;;;25.95;22.02;;;20.30;83.90;;;;;;5015859;28;20046;-84
2021/06/04 02:04:57;;;;;;;26.73;23.90;;;20.30;83.70;;;;;;5016639;28;20131;-85
2021/06/04 02:07:31;;;;;;;27.60;23.58;;;20.30;83.80;;;;;;5016379;28;20050;-84
2021/06/04 02:09:58;;;;;;;26.90;22.95;;;20.20;83.80;;;;;;5016134;28;20096;-84
2021/06/04 02:12:25;;;;;;;28.77;24.17;;;20.20;83.90;;;;;;5016377;28;20125;-84
2021/06/04 02:14:56;;;;;;;26.67;22.92;;;20.20;84.00;;;;;;5015537;28;20180;-84
2021/06/04 02:17:33;;;;;;;31.48;26.17;;;20.10;83.60;;;;;;5016649;28;20121;-84
2021/06/04 02:20:25;;;;;;;30.60;25.55;;;20.10;83.50;;;;;;5016192;28;20046;-84
2021/06/04 02:23:06;;;;;;;29.35;25.23;;;20.10;83.30;;;;;;5014497;28;20118;-84
2021/06/04 02:25:59;;;;;;;27.33;22.60;;;20.00;84.00;;;;;;5016180;28;20069;-85
2021/06/04 02:28:37;;;;;;;31.20;26.80;;;20.00;83.50;;;;;;5016552;28;20057;-84
2021/06/04 02:31:15;;;;;;;26.65;23.63;;;20.00;84.10;;;;;;5015986;28;20057;-84
2021/06/04 02:33:51;;;;;;;27.02;23.92;;;20.00;84.00;;;;;;5016074;28;20056;-84
2021/06/04 02:36:23;;;;;;;30.35;26.45;;;20.00;84.30;;;;;;5015439;28;20049;-84
2021/06/04 02:38:55;;;;;;;31.52;27.17;;;19.90;84.60;;;;;;5008779;28;20073;-85
2021/06/04 02:41:35;;;;;;;31.02;26.33;;;19.90;84.50;;;;;;4996466;28;20524;-84
2021/06/04 02:44:10;;;;;;;26.80;23.85;;;19.90;84.20;;;;;;4994969;28;20486;-84
2021/06/04 02:46:42;;;;;;;30.05;25.40;;;19.90;84.40;;;;;;4996510;28;20053;-84
2021/06/04 02:49:11;;;;;;;30.45;26.15;;;19.80;84.30;;;;;;5005344;28;20104;-84
2021/06/04 02:51:54;;;;;;;29.50;26.17;;;19.80;84.40;;;;;;4997831;28;20481;-85
2021/06/04 02:54:29;;;;;;;;;;;19.80;84.20;;;;;;5016120;28;20135;-84
2021/06/04 02:56:58;;;;;;;29.83;24.85;;;19.70;82.70;;;;;;5014063;28;20722;-85
2021/06/04 02:59:28;;;;;;;28.90;25.83;;;19.70;84.70;;;;;;5015890;28;20124;-84
2021/06/04 03:02:07;;;;;;;29.67;26.08;;;19.70;84.40;;;;;;4997846;28;20053;-85
2021/06/04 03:04:35;;;;;;;29.88;26.38;;;19.70;84.50;;;;;;5007444;28;20494;-84
2021/06/04 03:07:09;;;;;;;30.48;25.98;;;19.60;84.90;;;;;;4995681;28;20053;-85
2021/06/04 03:09:38;;;;;;;30.63;27.05;;;19.60;84.80;;;;;;4996007;28;20046;-84
2021/06/04 03:12:36;;;;;;;33.00;28.08;;;19.60;85.40;;;;;;4994752;28;20046;-85
2021/06/04 03:15:25;;;;;;;30.90;27.30;;;19.60;83.60;;;;;;4994520;28;20046;-84
2021/06/04 03:17:51;;;;;;;29.42;25.80;;;19.50;84.40;;;;;;4995227;28;20058;-84
2021/06/04 03:20:24;;;;;;;30.67;27.33;;;19.50;84.60;;;;;;4995827;28;20046;-84
2021/06/04 03:22:50;;;;;;;31.58;27.73;;;19.50;84.70;;;;;;4995806;28;20054;-84
2021/06/04 03:25:24;;;;;;;30.42;27.02;;;19.50;84.90;;;;;;5012111;28;20104;-85
2021/06/04 03:27:52;;;;;;;30.80;27.38;;;19.40;84.90;;;;;;5015242;28;20054;-85
2021/06/04 03:30:21;;;;;;;29.73;26.10;;;19.40;85.10;;;;;;5014818;28;20068;-84
2021/06/04 03:32:47;;;;;;;30.08;26.20;;;19.40;85.20;;;;;;5014499;28;20050;-85
2021/06/04 03:35:14;;;;;;;29.33;26.23;;;19.40;85.30;;;;;;5014764;28;20046;-84
2021/06/04 03:37:40;;;;;;;28.60;25.40;;;19.40;85.10;;;;;;5014847;28;20473;-85
2021/06/04 03:40:09;;;;;;;30.88;26.77;;;19.30;84.90;;;;;;5013864;28;20073;-85
2021/06/04 03:42:35;;;;;;;31.05;25.67;;;19.30;85.10;;;;;;5015058;28;20056;-85
2021/06/04 03:45:01;;;;;;;29.52;26.08;;;19.30;84.90;;;;;;5014767;28;20054;-85
2021/06/04 03:47:32;;;;;;;31.63;26.85;;;19.20;85.00;;;;;;5014202;28;20041;-84
2021/06/04 03:49:58;;;;;;;31.17;26.23;;;19.20;85.10;;;;;;5013795;28;20060;-85
2021/06/04 03:52:25;;;;;;;30.80;27.42;;;19.20;85.00;;;;;;5014865;28;20077;-85
2021/06/04 03:54:53;;;;;;;28.35;24.48;;;19.10;84.90;;;;;;5014120;28;20397;-85
2021/06/04 03:57:24;;;;;;;29.08;25.15;;;19.20;85.20;;;;;;5014873;28;20137;-84
2021/06/04 03:59:51;;;;;;;30.17;25.80;;;19.10;85.00;;;;;;5014616;28;20524;-84
2021/06/04 04:02:19;;;;;;;27.92;24.75;;;19.10;85.20;;;;;;5013411;28;20048;-84
2021/06/04 04:04:45;;;;;;;30.45;25.80;;;19.10;85.30;;;;;;5014861;28;20077;-84
2021/06/04 04:07:11;;;;;;;29.25;25.80;;;19.10;85.80;;;;;;5013360;28;20077;-84
2021/06/04 04:09:37;;;;;;;30.35;26.23;;;19.10;85.80;;;;;;5013913;28;20433;-84
2021/06/04 04:12:04;;;;;;;27.83;24.45;;;19.00;85.60;;;;;;5014236;28;20099;-84
2021/06/04 04:14:29;;;;;;;27.02;23.35;;;19.00;85.20;;;;;;5013633;28;20046;-85
2021/06/04 04:16:55;;;;;;;26.83;23.08;;;19.00;85.10;;;;;;5013923;28;20115;-84
2021/06/04 04:19:22;;;;;;;26.42;23.55;;;19.00;85.30;;;;;;5013482;28;20034;-85
2021/06/04 04:21:50;;;;;;;25.23;22.10;;;19.00;84.70;;;;;;5012036;28;20133;-84
2021/06/04 04:24:21;;;;;;;24.80;21.45;;;18.90;84.60;;;;;;5007531;28;20153;-85
2021/06/04 04:26:48;;;;;;;23.95;21.40;;;18.90;85.20;;;;;;5013923;28;20045;-85
2021/06/04 04:29:14;;;;;;;24.23;21.63;;;18.90;85.10;;;;;;5009976;28;20108;-84
2021/06/04 04:31:45;;;;;;;23.90;21.40;;;18.90;85.20;;;;;;5013770;28;20049;-85
2021/06/04 04:34:11;;;;;;;24.35;21.85;;;18.80;85.20;;;;;;5013160;28;20378;-84
2021/06/04 04:36:41;;;;;;;23.25;20.75;;;18.80;85.40;;;;;;5013217;28;20444;-84
2021/06/04 04:39:10;;;;;;;23.60;21.20;;;18.70;85.00;;;;;;5013376;28;20133;-84
2021/06/04 04:41:36;;;;;;;22.75;20.40;;;18.70;84.80;;;;;;5011428;28;20054;-84
2021/06/04 04:44:03;;;;;;;23.25;20.63;;;18.70;85.40;;;;;;5012480;28;20042;-83
2021/06/04 04:46:29;;;;;;;21.23;19.00;;;18.70;85.20;;;;;;5013556;28;20065;-83
2021/06/04 04:48:56;;;;;;;21.08;18.85;;;18.70;85.70;;;;;;5012609;28;20046;-84
2021/06/04 04:51:23;;;;;;;23.17;19.02;;;18.70;85.80;;;;;;5012854;28;20046;-84
2021/06/04 04:53:51;;;;;;;22.13;19.83;;;18.70;86.10;;;;;;5012002;28;20049;-84
2021/06/04 04:56:19;;;;;;;21.73;19.42;;;18.60;86.00;;;;;;5010468;28;20033;-83
2021/06/04 04:58:46;;;;;;;21.60;19.40;;;18.60;86.30;;;;;;5013122;28;20046;-85
2021/06/04 05:01:14;;;;;;;21.60;19.40;;;18.60;85.40;;;;;;5013121;28;20540;-85
2021/06/04 05:03:41;;;;;;;21.98;19.73;;;18.60;85.40;;;;;;5011801;28;20080;-85
2021/06/04 05:06:08;;;;;;;19.83;17.60;;;18.60;85.30;;;;;;5010605;28;21410;-85
2021/06/04 05:08:34;;;;;;;21.10;18.77;;;18.60;85.60;;;;;;5011700;28;20184;-85
2021/06/04 05:11:00;;;;;;;19.77;17.58;;;18.60;85.80;;;;;;5011857;28;20053;-84
2021/06/04 05:13:26;;;;;;;21.20;19.10;;;18.50;85.50;;;;;;5012472;28;20050;-85
2021/06/04 05:15:52;;;;;;;19.25;17.35;;;18.60;85.70;;;;;;5012236;28;20135;-85
2021/06/04 05:18:18;;;;;;;19.00;17.10;;;18.50;85.50;;;;;;5012182;28;20486;-84
2021/06/04 05:20:46;;;;;;;20.30;17.77;;;18.50;85.30;;;;;;5013547;28;20095;-85
2021/06/04 05:23:13;;;;;;;19.25;17.27;;;18.50;84.80;;;;;;5013105;28;20133;-84
2021/06/04 05:25:42;;;;;;;18.67;16.85;;;18.50;84.60;;;;;;5011957;28;20053;-82
2021/06/04 05:28:10;;;;;;;19.33;17.35;;;18.50;84.70;;;;;;5012973;28;20107;-83
2021/06/04 05:30:40;;;;;;;17.52;15.73;;;18.50;84.90;;;;;;5013222;28;20054;-83
2021/06/04 05:33:09;;;;;;;19.52;17.45;;;18.40;84.20;;;;;;5011510;28;20050;-83
2021/06/04 05:35:35;;;;;;;19.92;17.73;;;18.40;84.30;;;;;;5005640;28;20042;-84
2021/06/04 05:38:00;;;;;;;26.42;23.20;;;18.40;84.20;;;;;;4993061;28;20050;-84
2021/06/04 05:40:33;;;;;;;19.80;17.67;;;18.40;85.80;;;;;;4992196;28;20085;-84
2021/06/04 05:43:00;;;;;;;18.85;16.90;;;18.40;85.70;;;;;;4990858;28;20500;-84
2021/06/04 05:45:31;;;;;;;20.20;18.10;;;18.40;85.30;;;;;;4993092;28;20197;-86
2021/06/04 05:47:57;;;;;;;20.45;18.35;;;18.40;85.90;;;;;;4999006;28;20496;-85
2021/06/04 05:50:29;;;;;;;18.88;16.85;;;18.40;86.20;;;;;;5013409;28;20046;-85
2021/06/04 05:52:55;;;;;;;33.78;28.63;;;18.40;86.40;;;;;;5012602;28;20065;-85
2021/06/04 05:55:25;;;;;;;33.70;28.38;;;18.40;87.00;;;;;;5012432;28;20042;-85
2021/06/04 05:57:54;;;;;;;21.00;18.83;;;18.40;86.70;;;;;;4993489;28;20109;-85
2021/06/04 06:00:29;;;;;;;26.08;23.17;;;18.50;86.50;;;;;;4992837;28;20054;-85
2021/06/04 06:02:55;;;;;;;31.80;26.80;;;18.40;86.40;;;;;;4993162;28;20410;-84
2021/06/04 06:05:27;;;;;;;34.58;28.55;;;18.40;85.90;;;;;;4993180;28;20109;-89
2021/06/04 06:07:54;;;;;;;42.40;32.88;;;18.40;86.30;;;;;;4992369;28;20050;-89
2021/06/04 06:10:21;;;;;;;37.22;29.85;;;18.50;87.30;;;;;;4993078;28;20050;-88
2021/06/04 06:12:47;;;;;;;24.95;21.77;;;18.50;87.40;;;;;;4993674;28;20379;-90
2021/06/04 06:15:14;;;;;;;34.92;28.10;;;18.50;87.50;;;;;;4992472;28;20054;-88
2021/06/04 06:17:40;;;;;;;34.38;27.30;;;18.50;87.40;;;;;;4993295;28;20490;-84
2021/06/04 06:20:10;;;;;;;32.72;26.30;;;18.60;87.70;;;;;;4987232;28;20483;-85
2021/06/04 06:22:36;;;;;;;28.25;22.63;;;18.60;87.20;;;;;;4990801;28;20124;-86
2021/06/04 06:25:10;;;;;;;49.88;35.50;;;18.70;87.00;;;;;;4995907;28;20061;-86
2021/06/04 06:27:37;;;;;;;49.20;34.90;;;18.70;87.60;;;;;;5012585;28;20050;-86
2021/06/04 06:30:06;;;;;;;41.45;33.33;;;18.70;87.90;;;;;;5009262;28;20122;-85
2021/06/04 06:32:32;;;;;;;40.97;32.75;;;18.80;88.10;;;;;;5005613;28;20076;-87
2021/06/04 06:34:58;;;;;;;44.88;33.03;;;18.90;88.10;;;;;;5011147;28;20061;-88
2021/06/04 06:37:24;;;;;;;37.53;29.95;;;19.00;88.10;;;;;;5010933;28;20057;-86
2021/06/04 06:39:49;;;;;;;43.63;32.15;;;19.00;87.90;;;;;;5011094;28;20038;-88
2021/06/04 06:42:15;;;;;;;42.38;32.72;;;19.10;88.00;;;;;;5010402;28;20049;-89
2021/06/04 06:44:41;;;;;;;43.83;34.35;;;19.20;87.80;;;;;;5015231;28;20165;-93
2021/06/04 06:47:07;;;;;;;43.17;32.10;;;19.20;87.80;;;;;;5016353;28;20045;-86
2021/06/04 06:49:33;;;;;;;41.95;31.80;;;19.30;88.00;;;;;;5015485;28;20060;-87
2021/06/04 06:51:59;;;;;;;40.35;31.73;;;19.40;87.80;;;;;;5015504;28;20049;-85
2021/06/04 06:54:30;;;;;;;40.33;32.47;;;19.50;87.50;;;;;;5016625;28;20520;-88
2021/06/04 06:56:58;;;;;;;45.53;35.05;;;19.60;87.60;;;;;;5015714;28;20053;-88
2021/06/04 06:59:29;;;;;;;37.25;29.83;;;19.60;87.50;;;;;;5016401;28;20046;-88
2021/06/04 07:01:56;;;;;;;38.92;30.73;;;19.70;87.00;;;;;;5016094;28;20056;-88
2021/06/04 07:04:22;;;;;;;43.40;34.38;;;19.80;87.30;;;;;;5015352;28;20049;-87
2021/06/04 07:06:48;;;;;;;47.50;34.45;;;19.90;87.30;;;;;;5016090;28;20046;-88
2021/06/04 07:09:16;;;;;;;45.45;32.70;;;20.00;87.10;;;;;;5015441;28;20387;-87
2021/06/04 07:11:49;;;;;;;41.83;32.75;;;20.00;86.70;;;;;;5015472;28;20050;-87
2021/06/04 07:14:16;;;;;;;41.30;31.00;;;20.10;86.30;;;;;;5015264;28;20038;-87
2021/06/04 07:16:42;;;;;;;41.47;32.88;;;20.20;86.10;;;;;;5015823;28;20489;-87
2021/06/04 07:19:08;;;;;;;41.10;32.10;;;20.30;86.10;;;;;;5014673;28;20061;-89
2021/06/04 07:21:38;;;;;;;45.47;31.88;;;20.30;86.20;;;;;;5014893;28;20149;-86
2021/06/04 07:24:12;;;;;;;41.60;31.65;;;20.40;85.70;;;;;;5014648;28;20132;-87
2021/06/04 07:26:47;;;;;;;42.45;33.80;;;20.50;85.50;;;;;;5016042;28;20112;-87
2021/06/04 07:29:14;;;;;;;46.70;33.17;;;20.50;85.60;;;;;;5015316;28;20084;-85
2021/06/04 07:31:41;;;;;;;41.95;32.03;;;20.60;85.70;;;;;;5014717;28;20050;-86
2021/06/04 07:34:07;;;;;;;40.72;29.98;;;20.70;85.90;;;;;;5015340;28;20128;-86
2021/06/04 07:36:40;;;;;;;43.38;30.85;;;20.80;85.70;;;;;;5015577;28;20056;-88
2021/06/04 07:39:17;;;;;;;40.33;29.27;;;20.80;84.90;;;;;;5015053;28;20137;-87
2021/06/04 07:41:44;;;;;;;37.78;27.88;;;20.90;84.40;;;;;;5015433;28;20049;-88
2021/06/04 07:44:12;;;;;;;40.47;29.52;;;21.00;84.00;;;;;;5014738;28;20096;-87
2021/06/04 07:46:39;;;;;;;37.25;29.73;;;21.00;83.60;;;;;;5015178;28;20066;-87
2021/06/04 07:49:05;;;;;;;38.40;27.55;;;21.10;83.80;;;;;;5015449;28;20049;-89
2021/06/04 07:51:42;;;;;;;31.13;23.60;;;21.10;83.80;;;;;;5015796;28;20493;-91
2021/06/04 07:54:09;;;;;;;35.47;25.02;;;21.20;83.30;;;;;;5014571;28;20053;-91
2021/06/04 07:56:37;;;;;;;35.03;24.88;;;21.20;83.30;;;;;;5016577;28;20046;-95
2021/06/04 07:59:03;;;;;;;34.63;25.33;;;21.30;83.00;;;;;;5018535;28;20049;-95
2021/06/04 08:01:29;;;;;;;32.65;24.10;;;21.40;82.50;;;;;;5016663;28;20048;-95
2021/06/04 08:03:56;;;;;;;29.92;22.38;;;21.50;82.30;;;;;;5016341;28;20054;-92
2021/06/04 08:06:22;;;;;;;32.85;22.70;;;21.60;81.50;;;;;;5014880;28;20415;-90
2021/06/04 08:08:53;;;;;;;31.73;21.92;;;21.60;81.00;;;;;;5014448;28;20050;-90
2021/06/04 08:11:23;;;;;;;33.10;23.10;;;21.70;81.00;;;;;;5013137;28;20041;-91
2021/06/04 08:13:48;;;;;;;27.95;21.48;;;21.80;80.00;;;;;;5015929;28;20058;-89
2021/06/04 08:16:15;;;;;;;26.52;19.27;;;21.90;80.10;;;;;;5014937;28;20466;-93
2021/06/04 08:18:41;;;;;;;26.65;20.27;;;22.00;79.40;;;;;;5015150;28;20413;-91
2021/06/04 08:21:21;;;;;;;25.85;19.48;;;22.10;79.10;;;;;;5013378;28;20048;-87
2021/06/04 08:23:46;;;;;;;28.55;20.67;;;22.10;79.10;;;;;;5014195;28;20045;-84
2021/06/04 08:26:18;;;;;;;29.48;21.55;;;22.20;78.70;;;;;;5014336;28;20089;-86
2021/06/04 08:28:44;;;;;;;28.73;21.10;;;22.30;78.20;;;;;;5013871;28;20045;-87
2021/06/04 08:31:10;;;;;;;26.40;20.35;;;22.40;77.70;;;;;;5013894;28;20547;-87
2021/06/04 08:33:39;;;;;;;26.63;20.75;;;22.40;77.40;;;;;;5014232;28;20046;-87
2021/06/04 08:36:09;;;;;;;29.05;20.02;;;22.50;78.10;;;;;;5013512;28;20064;-88
2021/06/04 08:38:38;;;;;;;25.10;19.90;;;22.60;76.50;;;;;;5004424;28;20060;-89
2021/06/04 08:41:35;;;;;;;26.42;19.50;;;22.70;76.60;;;;;;5013248;28;20058;-89
2021/06/04 08:44:20;;;;;;;26.88;19.77;;;22.80;77.20;;;;;;5011303;28;20052;-88
2021/06/04 08:46:54;;;;;;;28.08;21.58;;;22.80;77.50;;;;;;5014450;28;20050;-87
2021/06/04 08:49:37;;;;;;;28.77;19.42;;;22.90;78.10;;;;;;5013542;28;20049;-88
2021/06/04 08:52:19;;;;;;;28.75;20.75;;;23.00;77.50;;;;;;5013200;28;20559;-91
2021/06/04 08:54:47;;;;;;;28.88;21.33;;;23.10;77.40;;;;;;5013792;28;20053;-88
2021/06/04 08:57:53;;;;;;;31.17;21.50;;;23.20;77.40;;;;;;5012855;28;20053;-90
2021/06/04 09:00:29;;;;;;;29.83;21.50;;;23.30;77.20;;;;;;5007328;28;20050;-88
2021/06/04 09:03:05;;;;;;;29.00;20.58;;;23.30;76.70;;;;;;5013604;28;20052;-86
2021/06/04 09:05:44;;;;;;;25.92;19.38;;;23.50;76.20;;;;;;5014376;28;20401;-87
2021/06/04 09:08:18;;;;;;;25.20;19.38;;;23.60;75.50;;;;;;5006429;28;20513;-86
2021/06/04 09:10:50;;;;;;;25.75;18.88;;;23.60;74.70;;;;;;5011962;28;20084;-86
2021/06/04 09:13:23;;;;;;;24.20;19.02;;;23.70;73.60;;;;;;5013065;28;20053;-88
2021/06/04 09:15:59;;;;;;;24.48;18.33;;;23.80;72.90;;;;;;5012387;28;20541;-87
2021/06/04 09:18:58;;;;;;;24.58;19.02;;;23.90;73.00;;;;;;5011457;28;20540;-88
2021/06/04 09:21:31;;;;;;;23.77;19.65;;;23.90;72.80;;;;;;4997796;28;20140;-87
2021/06/04 09:24:01;;;;;;;26.70;18.77;;;24.00;72.20;;;;;;5011897;28;20421;-87
2021/06/04 09:26:28;;;;;;;22.50;18.25;;;24.00;72.20;;;;;;5013286;28;20107;-87
2021/06/04 09:29:03;;;;;;;26.60;20.63;;;24.10;71.10;;;;;;5012070;28;20057;-86
2021/06/04 09:31:32;;;;;;;22.42;19.42;;;24.10;71.10;;;;;;5013021;28;20136;-86
2021/06/04 09:34:09;;;;;;;28.98;21.73;;;24.20;71.30;;;;;;5013222;28;20133;-85
2021/06/04 09:36:44;;;;;;;28.30;23.00;;;24.30;72.50;;;;;;5013504;28;20076;-86
2021/06/04 09:39:40;;;;;;;25.98;20.77;;;24.40;71.70;;;;;;5011798;28;20394;-85
2021/06/04 09:42:27;;;;;;;27.35;19.10;;;24.40;71.80;;;;;;5013322;28;20050;-85
2021/06/04 09:45:11;;;;;;;28.50;20.35;;;24.50;70.60;;;;;;5010340;28;20049;-86
2021/06/04 09:47:41;;;;;;;28.35;21.50;;;24.50;69.80;;;;;;5011463;28;20165;-86
2021/06/04 09:50:32;;;;;;;29.27;23.08;;;24.60;70.80;;;;;;5009749;28;20046;-86
2021/06/04 09:53:18;;;;;;;29.45;21.58;;;24.60;70.90;;;;;;5005707;28;20516;-86
2021/06/04 09:55:50;;;;;;;28.70;23.85;;;24.70;72.20;;;;;;5010277;28;20188;-86
2021/06/04 09:58:22;;;;;;;30.13;22.95;;;24.80;70.60;;;;;;5011687;28;20050;-86
2021/06/04 10:00:57;;;;;;;30.58;23.67;;;24.90;71.40;;;;;;5011506;28;20038;-87
2021/06/04 10:03:34;;;;;;;28.38;22.25;;;25.00;70.40;;;;;;5010210;28;20145;-86
2021/06/04 10:06:06;;;;;;;31.38;22.38;;;25.10;70.80;;;;;;5009654;28;20560;-86
2021/06/04 10:08:46;;;;;;;27.48;22.58;;;25.10;70.80;;;;;;5009520;28;20053;-86
2021/06/04 10:11:21;;;;;;;21.27;17.48;;;25.30;71.30;;;;;;5008870;28;20046;-86
2021/06/04 10:14:33;;;;;;;24.55;17.67;;;25.30;70.20;;;;;;5009675;28;20046;-86
2021/06/04 10:17:14;;;;;;;21.77;15.35;;;25.40;70.20;;;;;;5006783;28;20046;-86
2021/06/04 10:19:46;;;;;;;18.17;14.98;;;25.50;69.40;;;;;;5014525;28;20048;-86
2021/06/04 10:22:38;;;;;;;18.42;14.10;;;25.60;69.00;;;;;;5015177;28;20078;-85
2021/06/04 10:25:06;;;;;;;19.27;13.45;;;25.70;66.60;;;;;;5013000;28;20545;-87
2021/06/04 10:28:24;;;;;;;18.27;13.23;;;25.70;65.60;;;;;;5014485;28;20049;-86
2021/06/04 10:30:50;;;;;;;19.40;15.55;;;25.80;66.90;;;;;;4977866;28;20058;-91
2021/06/04 10:33:31;;;;;;;20.85;15.27;;;25.80;66.80;;;;;;5012081;28;20046;-90
2021/06/04 10:35:59;;;;;;;20.63;13.38;;;25.90;66.50;;;;;;5016049;28;20125;-89
2021/06/04 10:38:37;;;;;;;20.95;13.80;;;26.00;64.40;;;;;;5017143;28;20060;-85
2021/06/04 10:41:10;;;;;;;17.23;12.80;;;26.00;64.60;;;;;;5015897;28;20046;-86
2021/06/04 10:43:54;;;;;;;18.23;14.50;;;26.10;63.80;;;;;;5016801;28;20124;-87
2021/06/04 10:46:46;;;;;;;18.60;14.65;;;26.10;64.60;;;;;;5013033;28;20510;-87
2021/06/04 13:52:33;;;;;;;13.98;10.10;;;28.30;57.60;;;;;;5193770;27;65489;-89
2021/06/04 13:55:02;;;;;;;16.48;12.80;;;28.30;58.70;;;;;;5153770;27;20051;-84
2021/06/04 13:57:35;;;;;;;16.42;12.32;;;28.30;58.40;;;;;;5172756;27;20503;-88
2021/06/04 14:00:18;;;;;;;17.77;12.25;;;28.20;59.20;;;;;;5175199;27;20050;-85
2021/06/04 14:03:05;;;;;;;16.20;12.93;;;28.20;58.40;;;;;;5180218;27;20142;-88
2021/06/04 14:05:34;;;;;;;17.33;12.68;;;28.20;59.40;;;;;;5182906;27;20081;-84
2021/06/04 14:08:12;;;;;;;14.00;11.45;;;28.30;57.80;;;;;;5181474;27;20098;-83
2021/06/04 14:10:46;;;;;;;15.57;11.50;;;28.40;62.30;;;;;;5175395;27;20111;-92
2021/06/04 14:13:25;;;;;;;16.83;11.52;;;28.60;61.10;;;;;;5171370;27;20061;-92
2021/06/04 14:16:04;;;;;;;16.48;11.73;;;28.70;57.50;;;;;;5172785;27;20035;-88
2021/06/04 14:18:35;;;;;;;12.68;9.95;;;28.80;61.20;;;;;;5172963;27;20046;-90
2021/06/04 14:21:37;;;;;;;18.30;12.40;;;28.90;57.50;;;;;;5171676;27;20140;-89
2021/06/04 14:24:05;;;;;;;13.50;10.35;;;28.90;55.80;;;;;;5172169;27;20046;-92
2021/06/04 14:26:46;;;;;;;12.48;10.02;;;28.90;58.90;;;;;;5171960;27;20397;-93
2021/06/04 14:29:17;;;;;;;11.65;10.15;;;28.90;59.30;;;;;;5172464;27;20046;-90
2021/06/04 14:31:49;;;;;;;11.02;9.35;;;29.10;61.60;;;;;;5172607;27;20050;-89
2021/06/04 14:34:16;;;;;;;;;;;29.10;60.80;;;;;;5171612;27;20043;-91
2021/06/04 14:36:42;;;;;;;13.18;9.70;;;29.10;59.60;;;;;;5172712;27;19919;-84
2021/06/04 14:39:45;;;;;;;15.35;10.13;;;29.20;60.20;;;;;;5184758;27;20552;-86
2021/06/04 14:42:19;;;;;;;10.88;9.55;;;29.40;57.70;;;;;;5183349;27;20038;-86
2021/06/04 14:44:46;;;;;;;14.00;10.18;;;29.40;57.20;;;;;;5192804;27;20067;-86
2021/06/04 14:47:18;;;;;;;13.48;9.90;;;29.40;55.50;;;;;;5191676;27;20050;-87
2021/06/04 14:49:45;;;;;;;13.95;10.88;;;29.40;55.60;;;;;;5191942;27;20046;-86
2021/06/04 14:52:12;;;;;;;11.55;9.00;;;29.20;54.30;;;;;;5179503;27;20489;-86
2021/06/04 14:54:38;;;;;;;13.95;10.60;;;29.20;58.90;;;;;;5180120;27;20042;-86
2021/06/04 14:57:06;;;;;;;10.82;9.63;;;29.20;55.20;;;;;;5191148;27;20050;-85
2021/06/04 14:59:32;;;;;;;11.07;9.20;;;29.20;60.70;;;;;;5192558;27;20481;-86
2021/06/04 15:01:59;;;;;;;11.73;9.75;;;29.30;62.10;;;;;;5176018;27;20489;-84
2021/06/04 15:04:25;;;;;;;10.77;8.63;;;29.40;56.40;;;;;;5178617;27;20038;-85
2021/06/04 15:06:51;;;;;;;11.50;8.18;;;29.40;58.20;;;;;;5176031;27;20069;-90
2021/06/04 15:09:18;;;;;;;13.65;9.00;;;29.40;55.20;;;;;;5166173;27;20121;-89
2021/06/04 15:11:46;;;;;;;10.88;8.40;;;29.20;52.70;;;;;;5178168;27;20500;-89
2021/06/04 15:14:13;;;;;;;10.32;7.45;;;29.10;57.50;;;;;;5162825;27;20096;-90
2021/06/04 15:16:38;;;;;;;11.15;7.93;;;29.00;58.80;;;;;;5162401;27;20042;-91
2021/06/04 15:19:07;;;;;;;11.57;7.90;;;29.10;61.60;;;;;;5167775;27;20057;-91
2021/06/04 15:21:33;;;;;;;10.85;7.63;;;29.20;56.60;;;;;;5157668;27;20054;-90
2021/06/04 15:24:00;;;;;;;12.05;7.30;;;29.10;56.70;;;;;;5156946;27;20069;-91
2021/06/04 15:26:27;;;;;;;11.73;6.85;;;29.00;53.60;;;;;;5157504;27;20508;-90
2021/06/04 15:28:55;;;;;;;12.35;7.78;;;28.90;52.40;;;;;;5157578;27;20049;-90
2021/06/04 15:31:27;;;;;;;10.00;6.97;;;28.90;58.20;;;;;;5156702;27;20057;-91
2021/06/04 15:33:53;;;;;;;8.83;7.50;;;29.00;61.80;;;;;;5156903;27;20050;-85
2021/06/04 15:36:19;;;;;;;15.23;9.93;;;29.20;59.40;;;;;;5162888;27;20046;-87
2021/06/04 15:38:44;;;;;;;13.18;9.15;;;29.20;54.60;;;;;;5160606;27;20042;-88
2021/06/04 15:41:10;;;;;;;15.85;8.85;;;29.20;54.50;;;;;;5156408;27;20401;-86
2021/06/04 15:43:41;;;;;;;16.77;10.30;;;29.10;56.10;;;;;;5155869;27;20130;-87
2021/06/04 15:46:06;;;;;;;24.55;21.50;;;29.10;54.70;;;;;;5156146;27;20107;-90
2021/06/04 15:48:32;;;;;;;15.35;10.20;;;29.00;57.40;;;;;;5169785;27;20043;-85
2021/06/04 15:50:58;;;;;;;15.63;12.50;;;29.00;55.00;;;;;;5166883;27;20058;-86
2021/06/04 15:53:43;;;;;;;15.05;12.88;;;28.80;54.40;;;;;;5174103;27;20488;-91
2021/06/04 15:56:09;;;;;;;14.18;11.93;;;28.60;59.30;;;;;;5175727;27;20085;-91